sensor_id;sensor_type;location;lat;lon;timestamp;temperature;humidity
15705;DHT22;7952;48.396;12.806;2023-03-02T00:01:05;4.60;51.50
15705;DHT22;7952;48.396;12.806;2023-03-02T00:03:34;4.60;51.60
15705;DHT22;7952;48.396;12.806;2023-03-02T00:06:03;4.60;51.90
15705;DHT22;7952;48.396;12.806;2023-03-02T00:08:29;4.60;52.00
15705;DHT22;7952;48.396;12.806;2023-03-02T00:10:55;4.70;52.00
15705;DHT22;7952;48.396;12.806;2023-03-02T00:13:22;4.60;51.90
15705;DHT22;7952;48.396;12.806;2023-03-02T00:15:48;4.70;52.50
15705;DHT22;7952;48.396;12.806;2023-03-02T00:18:13;4.70;52.00
15705;DHT22;7952;48.396;12.806;2023-03-02T00:20:39;4.60;52.00
15705;DHT22;7952;48.396;12.806;2023-03-02T00:23:04;4.60;52.00
15705;DHT22;7952;48.396;12.806;2023-03-02T00:25:30;4.70;52.40
15705;DHT22;7952;48.396;12.806;2023-03-02T00:27:55;4.70;52.60
15705;DHT22;7952;48.396;12.806;2023-03-02T00:30:21;4.70;52.50
15705;DHT22;7952;48.396;12.806;2023-03-02T00:32:47;4.80;52.50
15705;DHT22;7952;48.396;12.806;2023-03-02T00:35:12;4.80;52.50
15705;DHT22;7952;48.396;12.806;2023-03-02T00:37:38;4.80;52.60
15705;DHT22;7952;48.396;12.806;2023-03-02T00:40:06;4.80;52.60
15705;DHT22;7952;48.396;12.806;2023-03-02T00:42:34;4.80;52.40
15705;DHT22;7952;48.396;12.806;2023-03-02T00:45:00;4.80;52.50
15705;DHT22;7952;48.396;12.806;2023-03-02T00:47:27;4.90;52.80
15705;DHT22;7952;48.396;12.806;2023-03-02T00:49:53;4.90;52.90
15705;DHT22;7952;48.396;12.806;2023-03-02T00:52:19;4.90;52.80
15705;DHT22;7952;48.396;12.806;2023-03-02T00:54:44;5.00;52.90
15705;DHT22;7952;48.396;12.806;2023-03-02T00:57:10;5.00;53.00
15705;DHT22;7952;48.396;12.806;2023-03-02T00:59:38;5.10;53.30
15705;DHT22;7952;48.396;12.806;2023-03-02T01:02:05;5.10;53.20
15705;DHT22;7952;48.396;12.806;2023-03-02T01:04:36;5.20;53.40
15705;DHT22;7952;48.396;12.806;2023-03-02T01:07:10;5.20;53.20
15705;DHT22;7952;48.396;12.806;2023-03-02T01:09:37;5.30;53.10
15705;DHT22;7952;48.396;12.806;2023-03-02T01:12:03;5.30;53.00
15705;DHT22;7952;48.396;12.806;2023-03-02T01:14:30;5.20;52.90
15705;DHT22;7952;48.396;12.806;2023-03-02T01:16:56;5.30;53.10
15705;DHT22;7952;48.396;12.806;2023-03-02T01:19:21;5.20;53.00
15705;DHT22;7952;48.396;12.806;2023-03-02T01:21:47;5.20;52.80
15705;DHT22;7952;48.396;12.806;2023-03-02T01:24:13;5.20;52.80
15705;DHT22;7952;48.396;12.806;2023-03-02T01:26:38;5.20;52.90
15705;DHT22;7952;48.396;12.806;2023-03-02T01:29:04;5.20;53.00
15705;DHT22;7952;48.396;12.806;2023-03-02T01:31:30;5.20;53.10
15705;DHT22;7952;48.396;12.806;2023-03-02T01:33:56;5.20;53.20
15705;DHT22;7952;48.396;12.806;2023-03-02T01:36:22;5.20;53.20
15705;DHT22;7952;48.396;12.806;2023-03-02T01:38:48;5.20;53.20
15705;DHT22;7952;48.396;12.806;2023-03-02T01:41:14;5.20;53.30
15705;DHT22;7952;48.396;12.806;2023-03-02T01:43:39;5.20;53.30
15705;DHT22;7952;48.396;12.806;2023-03-02T01:46:24;5.30;53.40
15705;DHT22;7952;48.396;12.806;2023-03-02T01:49:04;5.30;53.30
15705;DHT22;7952;48.396;12.806;2023-03-02T01:51:34;5.30;53.40
15705;DHT22;7952;48.396;12.806;2023-03-02T01:54:06;5.40;53.50
15705;DHT22;7952;48.396;12.806;2023-03-02T01:56:36;5.40;53.50
15705;DHT22;7952;48.396;12.806;2023-03-02T01:59:06;5.40;53.50
15705;DHT22;7952;48.396;12.806;2023-03-02T02:01:35;5.40;53.50
15705;DHT22;7952;48.396;12.806;2023-03-02T02:04:02;5.40;54.10
15705;DHT22;7952;48.396;12.806;2023-03-02T02:06:36;5.40;53.50
15705;DHT22;7952;48.396;12.806;2023-03-02T02:09:03;5.40;53.50
15705;DHT22;7952;48.396;12.806;2023-03-02T02:11:29;5.40;53.50
15705;DHT22;7952;48.396;12.806;2023-03-02T02:13:57;5.40;53.40
15705;DHT22;7952;48.396;12.806;2023-03-02T02:16:24;5.40;53.50
15705;DHT22;7952;48.396;12.806;2023-03-02T02:18:50;5.40;53.50
15705;DHT22;7952;48.396;12.806;2023-03-02T02:21:17;5.40;53.60
15705;DHT22;7952;48.396;12.806;2023-03-02T02:24:05;5.40;53.70
15705;DHT22;7952;48.396;12.806;2023-03-02T02:26:36;5.50;53.80
15705;DHT22;7952;48.396;12.806;2023-03-02T02:29:21;5.50;53.80
15705;DHT22;7952;48.396;12.806;2023-03-02T02:35:00;5.50;53.80
15705;DHT22;7952;48.396;12.806;2023-03-02T02:37:38;5.50;53.90
15705;DHT22;7952;48.396;12.806;2023-03-02T02:40:11;5.50;54.00
15705;DHT22;7952;48.396;12.806;2023-03-02T02:42:42;5.50;54.00
15705;DHT22;7952;48.396;12.806;2023-03-02T02:45:23;5.50;54.10
15705;DHT22;7952;48.396;12.806;2023-03-02T02:47:51;5.50;54.20
15705;DHT22;7952;48.396;12.806;2023-03-02T02:50:20;5.50;54.20
15705;DHT22;7952;48.396;12.806;2023-03-02T02:52:56;5.50;54.20
15705;DHT22;7952;48.396;12.806;2023-03-02T02:55:24;5.60;54.30
15705;DHT22;7952;48.396;12.806;2023-03-02T02:57:53;5.60;54.30
15705;DHT22;7952;48.396;12.806;2023-03-02T03:00:21;5.60;54.40
15705;DHT22;7952;48.396;12.806;2023-03-02T03:02:52;5.60;54.30
15705;DHT22;7952;48.396;12.806;2023-03-02T03:05:21;5.60;54.30
15705;DHT22;7952;48.396;12.806;2023-03-02T03:07:46;5.60;54.30
15705;DHT22;7952;48.396;12.806;2023-03-02T03:10:30;5.60;54.30
15705;DHT22;7952;48.396;12.806;2023-03-02T03:13:05;5.60;54.30
15705;DHT22;7952;48.396;12.806;2023-03-02T03:15:31;5.60;54.30
15705;DHT22;7952;48.396;12.806;2023-03-02T03:17:57;5.60;54.30
15705;DHT22;7952;48.396;12.806;2023-03-02T03:20:24;5.60;54.30
15705;DHT22;7952;48.396;12.806;2023-03-02T03:22:50;5.60;54.40
15705;DHT22;7952;48.396;12.806;2023-03-02T03:25:18;5.60;54.30
15705;DHT22;7952;48.396;12.806;2023-03-02T03:27:44;5.60;54.30
15705;DHT22;7952;48.396;12.806;2023-03-02T03:30:12;5.60;54.30
15705;DHT22;7952;48.396;12.806;2023-03-02T03:32:38;5.60;54.30
15705;DHT22;7952;48.396;12.806;2023-03-02T03:35:05;5.60;54.50
15705;DHT22;7952;48.396;12.806;2023-03-02T03:37:33;5.70;54.40
15705;DHT22;7952;48.396;12.806;2023-03-02T03:39:59;5.70;54.40
15705;DHT22;7952;48.396;12.806;2023-03-02T03:42:25;5.70;54.40
15705;DHT22;7952;48.396;12.806;2023-03-02T03:44:50;5.70;54.40
15705;DHT22;7952;48.396;12.806;2023-03-02T03:47:16;5.70;54.90
15705;DHT22;7952;48.396;12.806;2023-03-02T03:49:42;5.70;54.40
15705;DHT22;7952;48.396;12.806;2023-03-02T03:52:07;5.70;54.40
15705;DHT22;7952;48.396;12.806;2023-03-02T03:54:33;5.70;54.50
15705;DHT22;7952;48.396;12.806;2023-03-02T03:56:58;5.70;54.50
15705;DHT22;7952;48.396;12.806;2023-03-02T03:59:25;5.70;54.50
15705;DHT22;7952;48.396;12.806;2023-03-02T04:01:56;5.70;54.40
15705;DHT22;7952;48.396;12.806;2023-03-02T04:04:29;5.70;54.30
15705;DHT22;7952;48.396;12.806;2023-03-02T04:06:55;5.70;54.30
15705;DHT22;7952;48.396;12.806;2023-03-02T04:09:21;5.70;54.30
15705;DHT22;7952;48.396;12.806;2023-03-02T04:11:51;5.70;54.40
15705;DHT22;7952;48.396;12.806;2023-03-02T04:14:17;5.60;54.30
15705;DHT22;7952;48.396;12.806;2023-03-02T04:16:43;5.60;54.40
15705;DHT22;7952;48.396;12.806;2023-03-02T04:19:09;5.60;54.40
15705;DHT22;7952;48.396;12.806;2023-03-02T04:21:37;5.60;54.40
15705;DHT22;7952;48.396;12.806;2023-03-02T04:24:03;5.60;54.40
15705;DHT22;7952;48.396;12.806;2023-03-02T04:26:29;5.50;54.40
15705;DHT22;7952;48.396;12.806;2023-03-02T04:28:54;5.50;54.50
15705;DHT22;7952;48.396;12.806;2023-03-02T04:31:20;5.50;54.50
15705;DHT22;7952;48.396;12.806;2023-03-02T04:33:45;5.50;54.60
15705;DHT22;7952;48.396;12.806;2023-03-02T04:36:11;5.50;54.60
15705;DHT22;7952;48.396;12.806;2023-03-02T04:38:36;5.50;54.70
15705;DHT22;7952;48.396;12.806;2023-03-02T04:41:02;5.50;54.70
15705;DHT22;7952;48.396;12.806;2023-03-02T04:43:28;5.50;54.70
15705;DHT22;7952;48.396;12.806;2023-03-02T04:45:53;5.50;55.30
15705;DHT22;7952;48.396;12.806;2023-03-02T04:48:20;5.50;54.60
15705;DHT22;7952;48.396;12.806;2023-03-02T04:50:45;5.50;54.70
15705;DHT22;7952;48.396;12.806;2023-03-02T04:53:11;5.40;54.60
15705;DHT22;7952;48.396;12.806;2023-03-02T04:55:37;5.40;54.60
15705;DHT22;7952;48.396;12.806;2023-03-02T04:58:02;5.40;54.50
15705;DHT22;7952;48.396;12.806;2023-03-02T05:00:28;5.30;54.40
15705;DHT22;7952;48.396;12.806;2023-03-02T05:02:54;5.20;54.40
15705;DHT22;7952;48.396;12.806;2023-03-02T05:05:23;5.10;54.40
15705;DHT22;7952;48.396;12.806;2023-03-02T05:07:49;5.00;54.50
15705;DHT22;7952;48.396;12.806;2023-03-02T05:10:17;5.00;54.60
15705;DHT22;7952;48.396;12.806;2023-03-02T05:12:43;4.90;54.70
15705;DHT22;7952;48.396;12.806;2023-03-02T05:15:38;4.80;54.70
15705;DHT22;7952;48.396;12.806;2023-03-02T05:18:06;4.80;54.80
15705;DHT22;7952;48.396;12.806;2023-03-02T05:20:31;4.80;54.90
15705;DHT22;7952;48.396;12.806;2023-03-02T05:23:00;4.70;55.00
15705;DHT22;7952;48.396;12.806;2023-03-02T05:25:27;4.70;55.00
15705;DHT22;7952;48.396;12.806;2023-03-02T05:27:53;4.70;55.00
15705;DHT22;7952;48.396;12.806;2023-03-02T05:30:19;4.70;55.10
15705;DHT22;7952;48.396;12.806;2023-03-02T05:32:45;4.70;55.10
15705;DHT22;7952;48.396;12.806;2023-03-02T05:35:11;4.70;55.10
15705;DHT22;7952;48.396;12.806;2023-03-02T05:37:37;4.60;55.00
15705;DHT22;7952;48.396;12.806;2023-03-02T05:40:14;4.60;55.00
15705;DHT22;7952;48.396;12.806;2023-03-02T05:42:41;4.70;55.10
15705;DHT22;7952;48.396;12.806;2023-03-02T05:45:08;4.60;55.00
15705;DHT22;7952;48.396;12.806;2023-03-02T05:47:33;4.60;55.00
15705;DHT22;7952;48.396;12.806;2023-03-02T05:49:59;4.60;55.10
15705;DHT22;7952;48.396;12.806;2023-03-02T05:52:25;4.60;55.30
15705;DHT22;7952;48.396;12.806;2023-03-02T05:54:51;4.70;55.40
15705;DHT22;7952;48.396;12.806;2023-03-02T05:57:16;4.60;55.30
15705;DHT22;7952;48.396;12.806;2023-03-02T05:59:42;4.60;55.40
15705;DHT22;7952;48.396;12.806;2023-03-02T06:02:11;4.70;55.60
15705;DHT22;7952;48.396;12.806;2023-03-02T06:04:36;4.70;55.50
15705;DHT22;7952;48.396;12.806;2023-03-02T06:07:09;4.70;55.70
15705;DHT22;7952;48.396;12.806;2023-03-02T06:09:36;4.80;55.80
15705;DHT22;7952;48.396;12.806;2023-03-02T06:12:02;4.80;55.80
15705;DHT22;7952;48.396;12.806;2023-03-02T06:14:27;4.90;55.90
15705;DHT22;7952;48.396;12.806;2023-03-02T06:16:53;5.00;56.30
15705;DHT22;7952;48.396;12.806;2023-03-02T06:19:18;5.20;56.60
15705;DHT22;7952;48.396;12.806;2023-03-02T06:21:44;5.40;56.50
15705;DHT22;7952;48.396;12.806;2023-03-02T06:24:09;5.60;56.30
15705;DHT22;7952;48.396;12.806;2023-03-02T06:26:35;5.80;56.20
15705;DHT22;7952;48.396;12.806;2023-03-02T06:29:00;6.00;56.10
15705;DHT22;7952;48.396;12.806;2023-03-02T06:31:26;6.20;55.90
15705;DHT22;7952;48.396;12.806;2023-03-02T06:33:52;6.40;55.80
15705;DHT22;7952;48.396;12.806;2023-03-02T06:36:18;6.60;56.10
15705;DHT22;7952;48.396;12.806;2023-03-02T06:38:43;6.80;55.40
15705;DHT22;7952;48.396;12.806;2023-03-02T06:41:09;7.00;55.20
15705;DHT22;7952;48.396;12.806;2023-03-02T06:43:34;7.20;55.10
15705;DHT22;7952;48.396;12.806;2023-03-02T06:46:00;7.40;55.00
15705;DHT22;7952;48.396;12.806;2023-03-02T06:48:26;7.60;54.90
15705;DHT22;7952;48.396;12.806;2023-03-02T06:50:51;7.80;54.70
15705;DHT22;7952;48.396;12.806;2023-03-02T06:53:17;8.00;54.60
15705;DHT22;7952;48.396;12.806;2023-03-02T06:55:46;8.20;54.50
15705;DHT22;7952;48.396;12.806;2023-03-02T06:58:12;8.40;54.40
15705;DHT22;7952;48.396;12.806;2023-03-02T07:00:38;8.60;54.20
15705;DHT22;7952;48.396;12.806;2023-03-02T07:03:04;8.80;53.90
15705;DHT22;7952;48.396;12.806;2023-03-02T07:05:29;9.00;53.50
15705;DHT22;7952;48.396;12.806;2023-03-02T07:07:58;9.20;53.40
15705;DHT22;7952;48.396;12.806;2023-03-02T07:10:23;9.30;53.10
15705;DHT22;7952;48.396;12.806;2023-03-02T07:12:49;9.50;53.00
15705;DHT22;7952;48.396;12.806;2023-03-02T07:15:15;9.60;52.90
15705;DHT22;7952;48.396;12.806;2023-03-02T07:17:42;9.80;52.60
15705;DHT22;7952;48.396;12.806;2023-03-02T07:20:10;9.90;52.60
15705;DHT22;7952;48.396;12.806;2023-03-02T07:22:36;10.10;51.80
15705;DHT22;7952;48.396;12.806;2023-03-02T07:25:01;10.20;51.10
15705;DHT22;7952;48.396;12.806;2023-03-02T07:27:27;10.30;50.90
15705;DHT22;7952;48.396;12.806;2023-03-02T07:29:53;10.40;50.70
15705;DHT22;7952;48.396;12.806;2023-03-02T07:32:18;10.50;50.40
15705;DHT22;7952;48.396;12.806;2023-03-02T07:34:44;10.60;50.40
15705;DHT22;7952;48.396;12.806;2023-03-02T07:37:37;10.70;50.50
15705;DHT22;7952;48.396;12.806;2023-03-02T07:40:06;10.90;50.50
15705;DHT22;7952;48.396;12.806;2023-03-02T07:42:32;11.00;50.10
15705;DHT22;7952;48.396;12.806;2023-03-02T07:48:51;11.30;50.20
15705;DHT22;7952;48.396;12.806;2023-03-02T07:55:10;11.50;49.20
15705;DHT22;7952;48.396;12.806;2023-03-02T07:57:36;11.60;49.10
15705;DHT22;7952;48.396;12.806;2023-03-02T08:00:03;11.70;48.90
15705;DHT22;7952;48.396;12.806;2023-03-02T08:02:29;11.80;48.80
15705;DHT22;7952;48.396;12.806;2023-03-02T08:04:55;11.80;48.90
15705;DHT22;7952;48.396;12.806;2023-03-02T08:07:20;11.90;48.90
15705;DHT22;7952;48.396;12.806;2023-03-02T08:09:46;12.10;49.00
15705;DHT22;7952;48.396;12.806;2023-03-02T08:12:12;12.20;48.90
15705;DHT22;7952;48.396;12.806;2023-03-02T08:14:38;12.30;48.60
15705;DHT22;7952;48.396;12.806;2023-03-02T08:17:05;12.40;48.30
15705;DHT22;7952;48.396;12.806;2023-03-02T08:19:34;12.50;48.10
15705;DHT22;7952;48.396;12.806;2023-03-02T08:22:20;12.60;48.10
15705;DHT22;7952;48.396;12.806;2023-03-02T08:28:33;12.70;47.50
15705;DHT22;7952;48.396;12.806;2023-03-02T08:31:53;12.80;47.00
15705;DHT22;7952;48.396;12.806;2023-03-02T11:05:41;13.10;45.00
15705;DHT22;7952;48.396;12.806;2023-03-02T11:08:26;13.10;44.90
15705;DHT22;7952;48.396;12.806;2023-03-02T11:25:20;13.30;44.90
15705;DHT22;7952;48.396;12.806;2023-03-02T11:31:14;13.30;45.00
15705;DHT22;7952;48.396;12.806;2023-03-02T11:41:16;13.40;45.00
15705;DHT22;7952;48.396;12.806;2023-03-02T13:18:11;14.30;44.50
15705;DHT22;7952;48.396;12.806;2023-03-02T15:25:16;13.90;44.80
15705;DHT22;7952;48.396;12.806;2023-03-02T16:26:12;13.00;45.40
15705;DHT22;7952;48.396;12.806;2023-03-02T16:29:05;12.90;45.50
15705;DHT22;7952;48.396;12.806;2023-03-02T16:31:33;12.90;45.50
15705;DHT22;7952;48.396;12.806;2023-03-02T16:34:08;12.80;45.50
15705;DHT22;7952;48.396;12.806;2023-03-02T16:36:50;12.80;45.60
15705;DHT22;7952;48.396;12.806;2023-03-02T16:39:16;12.70;45.50
15705;DHT22;7952;48.396;12.806;2023-03-02T16:41:42;12.70;45.60
15705;DHT22;7952;48.396;12.806;2023-03-02T16:44:12;12.60;45.60
15705;DHT22;7952;48.396;12.806;2023-03-02T16:46:42;12.60;45.70
15705;DHT22;7952;48.396;12.806;2023-03-02T16:49:37;12.50;45.70
15705;DHT22;7952;48.396;12.806;2023-03-02T16:52:03;12.40;45.70
15705;DHT22;7952;48.396;12.806;2023-03-02T16:54:28;12.40;45.70
15705;DHT22;7952;48.396;12.806;2023-03-02T16:56:54;12.30;46.30
15705;DHT22;7952;48.396;12.806;2023-03-02T16:59:20;12.30;45.80
15705;DHT22;7952;48.396;12.806;2023-03-02T17:01:45;12.20;45.80
15705;DHT22;7952;48.396;12.806;2023-03-02T17:04:11;12.20;45.80
15705;DHT22;7952;48.396;12.806;2023-03-02T17:06:42;12.10;46.40
15705;DHT22;7952;48.396;12.806;2023-03-02T17:09:08;12.00;45.80
15705;DHT22;7952;48.396;12.806;2023-03-02T17:11:34;12.00;45.90
15705;DHT22;7952;48.396;12.806;2023-03-02T17:13:59;11.90;45.90
15705;DHT22;7952;48.396;12.806;2023-03-02T17:16:25;11.90;46.00
15705;DHT22;7952;48.396;12.806;2023-03-02T17:18:51;11.90;46.70
15705;DHT22;7952;48.396;12.806;2023-03-02T17:21:16;11.80;46.00
15705;DHT22;7952;48.396;12.806;2023-03-02T17:23:43;11.70;46.00
15705;DHT22;7952;48.396;12.806;2023-03-02T17:26:09;11.70;46.10
15705;DHT22;7952;48.396;12.806;2023-03-02T17:28:35;11.70;46.20
15705;DHT22;7952;48.396;12.806;2023-03-02T17:31:01;11.60;46.10
15705;DHT22;7952;48.396;12.806;2023-03-02T17:33:27;11.60;46.10
15705;DHT22;7952;48.396;12.806;2023-03-02T17:35:54;11.60;46.20
15705;DHT22;7952;48.396;12.806;2023-03-02T17:49:20;11.40;46.20
15705;DHT22;7952;48.396;12.806;2023-03-02T17:51:42;11.30;46.20
15705;DHT22;7952;48.396;12.806;2023-03-02T17:57:33;11.20;46.30
15705;DHT22;7952;48.396;12.806;2023-03-02T18:02:35;11.10;46.80
15705;DHT22;7952;48.396;12.806;2023-03-02T18:05:08;11.00;46.20
15705;DHT22;7952;48.396;12.806;2023-03-02T18:10:52;10.90;46.30
15705;DHT22;7952;48.396;12.806;2023-03-02T18:13:18;10.80;46.40
15705;DHT22;7952;48.396;12.806;2023-03-02T18:15:43;10.70;46.40
15705;DHT22;7952;48.396;12.806;2023-03-02T18:18:09;10.70;46.50
15705;DHT22;7952;48.396;12.806;2023-03-02T18:20:35;10.60;46.40
15705;DHT22;7952;48.396;12.806;2023-03-02T18:23:01;10.50;46.50
15705;DHT22;7952;48.396;12.806;2023-03-02T18:25:27;10.50;46.60
15705;DHT22;7952;48.396;12.806;2023-03-02T18:27:53;10.40;46.60
15705;DHT22;7952;48.396;12.806;2023-03-02T18:30:19;10.30;46.60
15705;DHT22;7952;48.396;12.806;2023-03-02T18:32:45;10.30;46.60
15705;DHT22;7952;48.396;12.806;2023-03-02T18:35:11;10.30;46.70
15705;DHT22;7952;48.396;12.806;2023-03-02T18:37:37;10.30;46.70
15705;DHT22;7952;48.396;12.806;2023-03-02T18:40:04;10.30;46.80
15705;DHT22;7952;48.396;12.806;2023-03-02T18:42:31;10.30;46.80
15705;DHT22;7952;48.396;12.806;2023-03-02T18:44:57;10.30;46.70
15705;DHT22;7952;48.396;12.806;2023-03-02T18:47:23;10.30;46.70
15705;DHT22;7952;48.396;12.806;2023-03-02T18:49:49;10.30;46.70
15705;DHT22;7952;48.396;12.806;2023-03-02T18:52:14;10.20;46.60
15705;DHT22;7952;48.396;12.806;2023-03-02T18:54:42;10.20;46.60
15705;DHT22;7952;48.396;12.806;2023-03-02T18:57:07;10.20;46.70
15705;DHT22;7952;48.396;12.806;2023-03-02T18:59:34;10.20;46.70
15705;DHT22;7952;48.396;12.806;2023-03-02T19:02:02;10.10;46.60
15705;DHT22;7952;48.396;12.806;2023-03-02T19:04:28;10.10;46.60
15705;DHT22;7952;48.396;12.806;2023-03-02T19:06:55;10.10;46.70
15705;DHT22;7952;48.396;12.806;2023-03-02T19:09:21;10.10;46.70
15705;DHT22;7952;48.396;12.806;2023-03-02T19:11:47;10.10;46.70
15705;DHT22;7952;48.396;12.806;2023-03-02T19:14:14;10.10;46.70
15705;DHT22;7952;48.396;12.806;2023-03-02T19:16:39;10.00;46.60
15705;DHT22;7952;48.396;12.806;2023-03-02T19:19:05;10.00;46.60
15705;DHT22;7952;48.396;12.806;2023-03-02T19:21:30;10.00;46.60
15705;DHT22;7952;48.396;12.806;2023-03-02T19:23:56;10.00;46.60
15705;DHT22;7952;48.396;12.806;2023-03-02T19:26:22;10.00;46.60
15705;DHT22;7952;48.396;12.806;2023-03-02T19:28:48;9.90;47.50
15705;DHT22;7952;48.396;12.806;2023-03-02T19:31:13;9.90;47.50
15705;DHT22;7952;48.396;12.806;2023-03-02T19:33:39;9.80;47.50
15705;DHT22;7952;48.396;12.806;2023-03-02T19:36:05;9.80;47.50
15705;DHT22;7952;48.396;12.806;2023-03-02T19:38:31;9.80;47.60
15705;DHT22;7952;48.396;12.806;2023-03-02T19:40:58;9.70;47.60
15705;DHT22;7952;48.396;12.806;2023-03-02T19:43:25;9.70;47.60
15705;DHT22;7952;48.396;12.806;2023-03-02T19:45:51;9.70;47.60
15705;DHT22;7952;48.396;12.806;2023-03-02T19:48:17;9.70;47.70
15705;DHT22;7952;48.396;12.806;2023-03-02T19:50:43;9.60;47.60
15705;DHT22;7952;48.396;12.806;2023-03-02T19:53:09;9.60;47.60
15705;DHT22;7952;48.396;12.806;2023-03-02T19:55:35;9.60;47.60
15705;DHT22;7952;48.396;12.806;2023-03-02T19:58:01;9.60;47.60
15705;DHT22;7952;48.396;12.806;2023-03-02T20:00:28;9.50;47.60
15705;DHT22;7952;48.396;12.806;2023-03-02T20:02:55;9.40;47.60
15705;DHT22;7952;48.396;12.806;2023-03-02T20:05:22;9.40;47.70
15705;DHT22;7952;48.396;12.806;2023-03-02T20:07:47;9.30;47.70
15705;DHT22;7952;48.396;12.806;2023-03-02T20:12:52;9.20;47.70
15705;DHT22;7952;48.396;12.806;2023-03-02T20:15:18;9.20;47.80
15705;DHT22;7952;48.396;12.806;2023-03-02T20:17:43;9.10;47.80
15705;DHT22;7952;48.396;12.806;2023-03-02T20:20:10;9.00;47.90
15705;DHT22;7952;48.396;12.806;2023-03-02T20:22:36;9.00;48.00
15705;DHT22;7952;48.396;12.806;2023-03-02T20:25:02;9.00;48.00
15705;DHT22;7952;48.396;12.806;2023-03-02T20:27:28;8.90;48.00
15705;DHT22;7952;48.396;12.806;2023-03-02T20:29:54;9.00;48.10
15705;DHT22;7952;48.396;12.806;2023-03-02T20:32:20;9.00;48.10
15705;DHT22;7952;48.396;12.806;2023-03-02T20:34:46;8.90;48.00
15705;DHT22;7952;48.396;12.806;2023-03-02T20:37:13;8.90;48.00
15705;DHT22;7952;48.396;12.806;2023-03-02T20:39:43;8.90;48.00
15705;DHT22;7952;48.396;12.806;2023-03-02T20:42:11;8.80;48.00
15705;DHT22;7952;48.396;12.806;2023-03-02T20:44:37;8.80;48.00
15705;DHT22;7952;48.396;12.806;2023-03-02T20:47:06;8.80;48.00
15705;DHT22;7952;48.396;12.806;2023-03-02T20:49:33;8.70;48.00
15705;DHT22;7952;48.396;12.806;2023-03-02T20:51:59;8.70;48.00
15705;DHT22;7952;48.396;12.806;2023-03-02T20:54:29;8.60;48.00
15705;DHT22;7952;48.396;12.806;2023-03-02T20:56:55;8.60;48.10
15705;DHT22;7952;48.396;12.806;2023-03-02T20:59:21;8.60;48.10
15705;DHT22;7952;48.396;12.806;2023-03-02T21:01:48;8.60;48.10
15705;DHT22;7952;48.396;12.806;2023-03-02T21:04:13;8.50;48.10
15705;DHT22;7952;48.396;12.806;2023-03-02T21:06:39;8.50;48.10
15705;DHT22;7952;48.396;12.806;2023-03-02T21:09:07;8.50;48.10
15705;DHT22;7952;48.396;12.806;2023-03-02T21:11:33;8.50;48.10
15705;DHT22;7952;48.396;12.806;2023-03-02T21:13:58;8.50;48.10
15705;DHT22;7952;48.396;12.806;2023-03-02T21:16:28;8.40;48.10
15705;DHT22;7952;48.396;12.806;2023-03-02T21:18:54;8.40;48.10
15705;DHT22;7952;48.396;12.806;2023-03-02T21:21:21;8.30;48.10
15705;DHT22;7952;48.396;12.806;2023-03-02T21:23:47;8.30;48.10
15705;DHT22;7952;48.396;12.806;2023-03-02T21:26:14;8.20;48.10
15705;DHT22;7952;48.396;12.806;2023-03-02T21:28:40;8.20;48.20
15705;DHT22;7952;48.396;12.806;2023-03-02T21:31:09;8.10;48.20
15705;DHT22;7952;48.396;12.806;2023-03-02T21:33:35;8.10;48.20
15705;DHT22;7952;48.396;12.806;2023-03-02T21:36:00;8.00;48.10
15705;DHT22;7952;48.396;12.806;2023-03-02T21:38:26;8.00;48.20
15705;DHT22;7952;48.396;12.806;2023-03-02T21:40:52;8.00;48.20
15705;DHT22;7952;48.396;12.806;2023-03-02T21:43:17;7.90;48.20
15705;DHT22;7952;48.396;12.806;2023-03-02T21:45:43;7.80;48.20
15705;DHT22;7952;48.396;12.806;2023-03-02T21:48:10;7.80;48.30
15705;DHT22;7952;48.396;12.806;2023-03-02T21:50:38;7.80;48.30
15705;DHT22;7952;48.396;12.806;2023-03-02T21:53:04;7.70;48.30
15705;DHT22;7952;48.396;12.806;2023-03-02T21:55:29;7.70;48.30
15705;DHT22;7952;48.396;12.806;2023-03-02T21:57:56;7.70;48.40
15705;DHT22;7952;48.396;12.806;2023-03-02T22:00:30;7.60;48.40
15705;DHT22;7952;48.396;12.806;2023-03-02T22:02:57;7.60;48.40
15705;DHT22;7952;48.396;12.806;2023-03-02T22:05:24;7.60;48.40
15705;DHT22;7952;48.396;12.806;2023-03-02T22:07:50;7.60;48.40
15705;DHT22;7952;48.396;12.806;2023-03-02T22:10:39;7.50;48.30
15705;DHT22;7952;48.396;12.806;2023-03-02T22:13:15;7.50;48.30
15705;DHT22;7952;48.396;12.806;2023-03-02T22:15:43;7.50;48.40
15705;DHT22;7952;48.396;12.806;2023-03-02T22:18:15;7.40;48.30
15705;DHT22;7952;48.396;12.806;2023-03-02T22:20:43;7.40;48.40
15705;DHT22;7952;48.396;12.806;2023-03-02T22:23:13;7.30;48.40
15705;DHT22;7952;48.396;12.806;2023-03-02T22:25:39;7.30;48.50
15705;DHT22;7952;48.396;12.806;2023-03-02T22:28:25;7.20;48.40
15705;DHT22;7952;48.396;12.806;2023-03-02T22:30:55;7.20;48.50
15705;DHT22;7952;48.396;12.806;2023-03-02T22:33:24;7.20;48.50
15705;DHT22;7952;48.396;12.806;2023-03-02T22:35:53;7.10;48.50
15705;DHT22;7952;48.396;12.806;2023-03-02T22:38:27;7.10;48.50
15705;DHT22;7952;48.396;12.806;2023-03-02T22:40:54;7.10;48.60
15705;DHT22;7952;48.396;12.806;2023-03-02T22:43:28;7.10;48.60
15705;DHT22;7952;48.396;12.806;2023-03-02T22:46:08;7.00;48.50
15705;DHT22;7952;48.396;12.806;2023-03-02T22:48:36;7.00;48.60
15705;DHT22;7952;48.396;12.806;2023-03-02T22:51:22;7.00;48.60
15705;DHT22;7952;48.396;12.806;2023-03-02T22:53:50;6.90;48.50
15705;DHT22;7952;48.396;12.806;2023-03-02T22:58:47;6.90;48.60
15705;DHT22;7952;48.396;12.806;2023-03-02T23:01:27;6.90;48.60
15705;DHT22;7952;48.396;12.806;2023-03-02T23:06:42;6.80;48.60
15705;DHT22;7952;48.396;12.806;2023-03-02T23:09:10;6.80;48.60
15705;DHT22;7952;48.396;12.806;2023-03-02T23:11:39;6.70;48.60
15705;DHT22;7952;48.396;12.806;2023-03-02T23:14:26;6.70;48.60
15705;DHT22;7952;48.396;12.806;2023-03-02T23:16:57;6.70;48.60
15705;DHT22;7952;48.396;12.806;2023-03-02T23:19:26;6.70;48.60
15705;DHT22;7952;48.396;12.806;2023-03-02T23:21:52;6.60;48.60
15705;DHT22;7952;48.396;12.806;2023-03-02T23:24:18;6.60;48.60
15705;DHT22;7952;48.396;12.806;2023-03-02T23:26:46;6.60;48.70
15705;DHT22;7952;48.396;12.806;2023-03-02T23:29:12;6.50;48.70
15705;DHT22;7952;48.396;12.806;2023-03-02T23:31:38;6.50;48.70
15705;DHT22;7952;48.396;12.806;2023-03-02T23:34:04;6.50;48.70
15705;DHT22;7952;48.396;12.806;2023-03-02T23:36:30;6.40;48.70
15705;DHT22;7952;48.396;12.806;2023-03-02T23:38:56;6.40;48.70
15705;DHT22;7952;48.396;12.806;2023-03-02T23:41:22;6.40;48.70
15705;DHT22;7952;48.396;12.806;2023-03-02T23:43:48;6.40;48.80
15705;DHT22;7952;48.396;12.806;2023-03-02T23:46:13;6.30;48.70
15705;DHT22;7952;48.396;12.806;2023-03-02T23:48:40;6.30;48.70
15705;DHT22;7952;48.396;12.806;2023-03-02T23:51:06;6.30;48.80
15705;DHT22;7952;48.396;12.806;2023-03-02T23:53:32;6.20;48.70
15705;DHT22;7952;48.396;12.806;2023-03-02T23:55:57;6.20;48.70
15705;DHT22;7952;48.396;12.806;2023-03-02T23:58:23;6.20;48.80
